Time;durP1;ratioP1;P1;durP2;ratioP2;P2;SDS_P1;SDS_P2;PMS_P1;PMS_P2;Temp;Humidity;BMP_temperature;BMP_pressure;BME280_temperature;BME280_humidity;BME280_pressure;Samples;Min_cycle;Max_cycle;Signal;HPM_P1;HPM_P2
2023/03/13 00:01:33;;;;;;;5.30;3.70;;;;;;;7.27;79.99;99274.13;5032507;28;20221;-81
2023/03/13 00:04:05;;;;;;;4.53;3.93;;;;;;;7.25;80.10;99271.66;5031472;28;20197;-80
2023/03/13 00:06:36;;;;;;;6.23;4.27;;;;;;;7.17;80.38;99260.41;5031357;28;20198;-80
2023/03/13 00:09:08;;;;;;;4.63;3.77;;;;;;;7.20;81.14;99267.97;5031986;28;20248;-80
2023/03/13 00:11:35;;;;;;;4.23;3.47;;;;;;;7.20;79.95;99249.31;5024440;28;20198;-80
2023/03/13 00:14:05;;;;;;;3.43;3.13;;;;;;;7.16;79.44;99248.94;5024437;28;20230;-81
2023/03/13 00:16:43;;;;;;;4.43;3.20;;;;;;;7.14;79.19;99248.31;5016035;28;20267;-80
2023/03/13 00:19:11;;;;;;;3.90;3.10;;;;;;;7.20;79.31;99238.66;5014553;28;20277;-82
2023/03/13 00:21:40;;;;;;;4.73;3.30;;;;;;;7.21;78.78;99245.66;5028376;28;20210;-81
2023/03/13 00:24:09;;;;;;;3.50;3.00;;;;;;;7.27;79.16;99239.50;5028325;28;20222;-79
2023/03/13 00:26:36;;;;;;;4.80;3.40;;;;;;;7.24;78.71;99234.56;5010232;28;20273;-81
2023/03/13 00:29:04;;;;;;;3.50;3.03;;;;;;;7.13;78.92;99235.22;5029637;28;20202;-81
2023/03/13 00:31:31;;;;;;;4.10;3.40;;;;;;;7.18;79.05;99219.44;5030943;28;20186;-79
2023/03/13 00:34:00;;;;;;;4.07;3.23;;;;;;;7.24;78.53;99214.06;5014763;28;20190;-81
2023/03/13 00:36:33;;;;;;;3.73;3.30;;;;;;;7.29;78.16;99203.59;5030832;28;20264;-81
2023/03/13 00:39:02;;;;;;;3.33;3.03;;;;;;;7.24;78.82;99207.91;5025820;28;20202;-80
2023/03/13 00:41:35;;;;;;;5.00;3.40;;;;;;;7.28;78.70;99209.94;5005369;28;20219;-82
2023/03/13 00:44:04;;;;;;;3.90;3.03;;;;;;;7.29;78.54;99195.59;5031158;28;20190;-81
2023/03/13 00:46:32;;;;;;;3.50;3.20;;;;;;;7.30;78.35;99191.09;5026960;28;20281;-82
2023/03/13 00:49:00;;;;;;;3.73;3.37;;;;;;;7.32;78.71;99187.22;5031327;28;20201;-80
2023/03/13 00:51:28;;;;;;;3.77;3.40;;;;;;;7.34;78.32;99195.81;5032138;28;20233;-80
2023/03/13 00:53:59;;;;;;;3.87;3.47;;;;;;;7.33;78.27;99191.50;5031987;28;20195;-79
2023/03/13 00:56:29;;;;;;;3.67;3.03;;;;;;;7.32;78.14;99183.72;5031167;28;20608;-82
2023/03/13 00:59:00;;;;;;;3.20;2.90;;;;;;;7.32;77.99;99184.56;5034498;28;20742;-81
2023/03/13 01:01:33;;;;;;;3.77;3.20;;;;;;;7.32;78.54;99183.72;5035550;28;20210;-79
2023/03/13 01:04:03;;;;;;;3.17;2.87;;;;;;;7.30;78.85;99178.59;5034416;28;20210;-81
2023/03/13 01:06:34;;;;;;;3.83;2.97;;;;;;;7.32;78.83;99179.22;5039998;28;20189;-80
2023/03/13 01:09:04;;;;;;;3.30;3.00;;;;;;;7.32;78.77;99176.56;5007709;28;20213;-80
2023/03/13 01:11:36;;;;;;;3.53;2.70;;;;;;;7.33;78.83;99178.16;5034551;28;20214;-79
2023/03/13 01:14:09;;;;;;;4.57;2.77;;;;;;;7.32;79.29;99170.41;5017957;28;20232;-80
2023/03/13 01:16:37;;;;;;;5.17;3.20;;;;;;;7.31;79.26;99166.91;5034860;28;20201;-81
2023/03/13 01:19:06;;;;;;;4.03;3.63;;;;;;;7.36;78.90;99175.09;5033125;28;20202;-82
2023/03/13 01:21:36;;;;;;;3.90;3.43;;;;;;;7.30;79.15;99162.59;5034419;28;20217;-79
2023/03/13 01:24:03;;;;;;;3.20;2.90;;;;;;;7.27;78.86;99155.03;5034186;28;20269;-82
2023/03/13 01:26:32;;;;;;;3.37;3.07;;;;;;;7.25;79.00;99154.44;5018350;28;20191;-80
2023/03/13 01:29:02;;;;;;;3.57;3.27;;;;;;;7.24;79.00;99158.13;5025995;28;20328;-82
2023/03/13 01:31:38;;;;;;;3.33;2.90;;;;;;;7.20;79.55;99156.06;5018209;28;20230;-80
2023/03/13 01:34:08;;;;;;;3.50;3.20;;;;;;;7.13;79.67;99152.63;5018003;28;20208;-80
2023/03/13 01:36:43;;;;;;;3.60;3.20;;;;;;;7.14;80.24;99148.94;5034360;28;20666;-79
2023/03/13 01:39:11;;;;;;;3.57;3.17;;;;;;;7.03;79.91;99151.22;5026471;28;20217;-79
2023/03/13 01:41:37;;;;;;;3.70;3.30;;;;;;;7.06;80.13;99148.13;5010560;28;20229;-83
2023/03/13 01:44:20;;;;;;;4.37;3.33;;;;;;;7.04;80.73;99139.53;5033578;28;20208;-81
2023/03/13 01:46:47;;;;;;;4.10;3.20;;;;;;;6.98;80.74;99144.88;5033978;28;20281;-81
2023/03/13 01:49:45;;;;;;;4.27;3.27;;;;;;;6.94;81.08;99141.81;4996644;28;20305;-82
2023/03/13 01:52:48;;;;;;;3.57;3.27;;;;;;;6.90;80.60;99145.91;5010427;28;20206;-80
2023/03/13 01:55:25;;;;;;;3.83;3.13;;;;;;;6.89;81.49;99138.94;5026814;28;20200;-79
2023/03/13 01:57:55;;;;;;;4.73;3.13;;;;;;;6.87;81.26;99142.81;5017176;28;20579;-79
2023/03/13 02:00:27;;;;;;;3.83;2.90;;;;;;;6.82;81.13;99138.13;5017510;28;20210;-80
2023/03/13 02:02:56;;;;;;;3.93;2.73;;;;;;;6.83;81.62;99142.44;5017562;28;20270;-79
2023/03/13 02:05:26;;;;;;;3.30;2.87;;;;;;;6.84;81.59;99138.75;5017634;28;20200;-81
2023/03/13 02:08:01;;;;;;;4.10;3.10;;;;;;;6.83;81.59;99138.94;5023658;28;20240;-81
2023/03/13 02:10:33;;;;;;;3.27;2.70;;;;;;;6.84;81.43;99136.09;5026359;28;20222;-79
2023/03/13 02:13:03;;;;;;;4.10;3.07;;;;;;;6.94;81.08;99140.97;5017535;28;20248;-80
2023/03/13 02:15:30;;;;;;;3.70;2.70;;;;;;;6.95;80.57;99137.31;5033248;28;20230;-80
2023/03/13 02:18:03;;;;;;;3.10;2.50;;;;;;;7.03;80.13;99127.25;5009589;28;20281;-82
2023/03/13 02:20:32;;;;;;;3.87;2.70;;;;;;;7.11;79.59;99131.50;5034815;28;20214;-80
2023/03/13 02:23:03;;;;;;;2.80;2.50;;;;;;;7.16;79.15;99139.69;5000674;28;20198;-80
2023/03/13 02:25:48;;;;;;;3.17;2.43;;;;;;;7.14;79.42;99124.97;5017528;28;20193;-79
2023/03/13 02:28:24;;;;;;;2.53;2.33;;;;;;;7.14;79.81;99133.75;4992796;28;20209;-80
2023/03/13 02:30:54;;;;;;;2.60;2.40;;;;;;;7.20;79.31;99132.09;5033017;28;20193;-80
2023/03/13 02:33:21;;;;;;;2.50;2.23;;;;;;;7.18;79.97;99129.66;5032930;28;20265;-80
2023/03/13 02:35:48;;;;;;;2.43;2.23;;;;;;;7.28;79.69;99127.34;5032881;28;20198;-80
2023/03/13 02:38:21;;;;;;;2.53;2.23;;;;;;;7.34;79.63;99129.19;5023995;28;20202;-79
2023/03/13 02:40:50;;;;;;;2.37;2.17;;;;;;;7.42;79.36;99123.59;5000729;28;20229;-80
2023/03/13 02:43:24;;;;;;;3.40;2.37;;;;;;;7.41;79.58;99134.50;5005954;28;20207;-79
2023/03/13 02:46:08;;;;;;;2.60;2.37;;;;;;;7.42;79.76;99136.94;5033931;28;20221;-80
2023/03/13 02:48:41;;;;;;;3.30;2.40;;;;;;;7.42;79.93;99136.94;5031463;28;20360;-80
2023/03/13 02:51:19;;;;;;;3.17;2.30;;;;;;;7.45;79.83;99139.19;5016503;28;20225;-80
2023/03/13 02:53:49;;;;;;;2.60;2.40;;;;;;;7.44;79.94;99142.88;5016240;28;20202;-81
2023/03/13 02:56:19;;;;;;;3.73;2.60;;;;;;;7.45;80.38;99147.19;5016523;28;20229;-80
2023/03/13 02:58:47;;;;;;;4.80;2.87;;;;;;;7.48;80.15;99154.75;5032391;28;20282;-79
2023/03/13 03:01:18;;;;;;;2.97;2.67;;;;;;;7.48;80.45;99152.09;5016882;28;20224;-81
2023/03/13 03:04:13;;;;;;;2.27;2.07;;;;;;;7.44;80.53;99160.72;5019602;28;20197;-81
2023/03/13 03:06:39;;;;;;;2.77;2.57;;;;;;;7.42;80.81;99173.41;5025861;28;20570;-80
2023/03/13 03:09:09;;;;;;;3.33;2.60;;;;;;;7.43;80.84;99167.06;5016149;28;20729;-79
2023/03/13 03:11:40;;;;;;;3.17;2.50;;;;;;;7.46;81.27;99170.16;5011873;28;20197;-81
2023/03/13 03:14:11;;;;;;;2.50;2.30;;;;;;;7.41;81.10;99166.47;5032328;28;20301;-81
2023/03/13 03:16:42;;;;;;;2.90;2.30;;;;;;;7.46;81.38;99164.00;5032445;28;20697;-81
2023/03/13 03:19:09;;;;;;;2.67;2.40;;;;;;;7.41;81.50;99163.81;5032077;28;20186;-80
2023/03/13 03:21:39;;;;;;;2.40;2.20;;;;;;;7.40;81.48;99163.00;5010650;28;20268;-79
2023/03/13 03:24:08;;;;;;;4.37;2.47;;;;;;;7.37;81.55;99157.28;5032005;28;20198;-78
2023/03/13 03:26:38;;;;;;;2.77;2.57;;;;;;;7.33;81.95;99156.03;5024156;28;20202;-80
2023/03/13 03:29:12;;;;;;;2.70;2.50;;;;;;;7.34;81.86;99152.34;5016338;28;20194;-79
2023/03/13 03:31:44;;;;;;;2.60;2.20;;;;;;;7.37;81.99;99159.94;5032084;28;20281;-80
2023/03/13 03:34:15;;;;;;;3.27;2.53;;;;;;;7.36;81.74;99167.13;5031483;28;20244;-82
2023/03/13 03:36:42;;;;;;;2.43;2.23;;;;;;;7.25;82.23;99154.44;5031770;28;20190;-79
2023/03/13 03:39:11;;;;;;;2.37;2.17;;;;;;;7.33;82.31;99162.19;5032678;28;20229;-79
2023/03/13 03:41:38;;;;;;;2.87;2.40;;;;;;;7.18;82.88;99156.31;5029762;28;20306;-79
2023/03/13 03:44:06;;;;;;;3.73;2.43;;;;;;;7.21;82.47;99163.88;4999380;28;20197;-81
2023/03/13 03:46:43;;;;;;;3.30;2.43;;;;;;;7.17;82.78;99162.66;5015888;28;20241;-80
2023/03/13 03:49:10;;;;;;;3.37;2.17;;;;;;;7.13;83.30;99156.13;5030099;28;20190;-81
2023/03/13 03:51:37;;;;;;;2.93;2.27;;;;;;;7.03;83.67;99155.72;5030286;28;20188;-79
2023/03/13 03:54:07;;;;;;;2.73;2.20;;;;;;;7.06;83.56;99156.13;5030263;28;20224;-80
2023/03/13 03:56:35;;;;;;;3.23;2.13;;;;;;;7.03;83.81;99156.53;5031659;28;20213;-80
2023/03/13 03:59:01;;;;;;;2.57;2.30;;;;;;;7.02;83.83;99160.22;5012427;28;20195;-79
2023/03/13 04:01:41;;;;;;;2.20;2.00;;;;;;;6.92;84.09;99164.34;5028902;28;20678;-83
2023/03/13 04:04:09;;;;;;;2.83;2.10;;;;;;;6.95;84.57;99166.59;5015373;28;20630;-78
2023/03/13 04:06:43;;;;;;;4.17;2.77;;;;;;;6.94;84.42;99156.97;5035455;28;20226;-81
2023/03/13 04:09:13;;;;;;;3.47;3.17;;;;;;;6.92;84.37;99151.00;5015203;28;20578;-79
2023/03/13 04:11:40;;;;;;;3.97;3.30;;;;;;;6.88;84.69;99161.28;5031975;28;20225;-81
2023/03/13 04:14:10;;;;;;;4.17;3.50;;;;;;;6.81;84.87;99154.31;5031000;28;20662;-79
2023/03/13 04:16:36;;;;;;;4.03;2.90;;;;;;;6.84;85.01;99154.72;5031356;28;20206;-81
2023/03/13 04:19:05;;;;;;;4.93;3.53;;;;;;;6.75;85.13;99160.47;5031734;28;20194;-79
2023/03/13 04:21:34;;;;;;;3.10;2.80;;;;;;;6.73;85.36;99166.00;5023039;28;20259;-82
2023/03/13 04:24:08;;;;;;;4.13;3.13;;;;;;;6.69;85.86;99174.59;5040802;28;20251;-79
2023/03/13 04:26:38;;;;;;;3.77;2.97;;;;;;;6.68;85.93;99165.78;5015492;28;20203;-79
2023/03/13 04:29:05;;;;;;;3.23;2.60;;;;;;;6.70;85.80;99169.06;5034872;28;20202;-82
2023/03/13 04:31:44;;;;;;;3.40;2.73;;;;;;;6.63;85.78;99155.75;5014076;28;20213;-80
2023/03/13 04:34:29;;;;;;;4.13;3.00;;;;;;;6.65;85.48;99150.22;5030499;28;20218;-79
2023/03/13 04:37:15;;;;;;;3.77;2.83;;;;;;;6.61;85.10;99146.34;5032809;28;20658;-79
2023/03/13 04:40:16;;;;;;;3.30;2.90;;;;;;;6.58;85.27;99149.41;4992027;28;20644;-80
2023/03/13 04:42:46;;;;;;;5.17;2.93;;;;;;;6.61;84.56;99139.19;5032758;28;20205;-80
2023/03/13 04:45:31;;;;;;;4.63;3.20;;;;;;;6.58;84.60;99139.56;5034393;28;20566;-80
2023/03/13 04:48:13;;;;;;;5.70;3.07;;;;;;;6.54;84.57;99134.88;5036315;28;20667;-81
2023/03/13 04:50:48;;;;;;;4.27;3.23;;;;;;;6.60;84.23;99136.72;5023321;28;20207;-80
2023/03/13 04:53:29;;;;;;;3.90;3.50;;;;;;;6.57;84.73;99134.47;5035251;28;20216;-80
2023/03/13 04:56:22;;;;;;;4.33;3.20;;;;;;;6.57;84.05;99123.84;5035138;28;20213;-81
2023/03/13 04:59:26;;;;;;;4.33;2.70;;;;;;;6.59;84.27;99124.44;5024349;28;20189;-81
2023/03/13 05:02:22;;;;;;;4.10;2.87;;;;;;;6.62;83.99;99121.38;5022111;28;20222;-78
2023/03/13 05:05:06;;;;;;;3.40;2.70;;;;;;;6.61;84.18;99117.91;5034857;28;20214;-82
2023/03/13 05:08:02;;;;;;;9.60;6.27;;;;;;;6.60;84.54;99112.75;4984338;28;20218;-81
2023/03/13 05:10:48;;;;;;;6.40;4.67;;;;;;;6.61;84.88;99112.56;5007331;28;20300;-81
2023/03/13 05:13:41;;;;;;;5.87;5.27;;;;;;;6.61;84.99;99117.91;5034368;28;20260;-79
2023/03/13 05:16:30;;;;;;;62.37;32.90;;;;;;;6.57;84.44;99111.34;5021136;28;20240;-80
2023/03/13 05:19:28;;;;;;;49.30;35.13;;;;;;;6.59;84.12;99108.47;5034493;28;20281;-79
2023/03/13 05:22:08;;;;;;;10.77;7.77;;;;;;;6.56;84.56;99107.03;5019633;28;20681;-79
2023/03/13 05:24:55;;;;;;;3.47;2.97;;;;;;;6.58;84.83;99099.66;5018304;28;20233;-80
2023/03/13 05:27:41;;;;;;;3.17;2.37;;;;;;;6.58;84.95;99102.31;5032518;28;20619;-80
2023/03/13 05:30:51;;;;;;;2.40;2.20;;;;;;;6.69;85.01;99111.53;5013784;28;20202;-78
2023/03/13 05:33:52;;;;;;;2.90;2.20;;;;;;;6.65;85.17;99110.31;5034326;28;20201;-82
2023/03/13 05:36:37;;;;;;;3.70;2.60;;;;;;;6.71;85.22;99114.00;5027964;28;20340;-81
2023/03/13 05:39:32;;;;;;;4.80;2.17;;;;;;;6.78;85.03;99101.47;5018673;28;20206;-82
2023/03/13 05:42:17;;;;;;;4.97;4.37;;;;;;;6.83;84.93;99101.66;5035588;28;20250;-80
2023/03/13 05:44:56;;;;;;;18.00;13.30;;;;;;;6.92;84.62;99109.22;5006225;28;20225;-81
2023/03/13 05:47:49;;;;;;;4.13;3.60;;;;;;;7.01;83.76;99105.31;5020511;28;20207;-79
2023/03/13 05:50:38;;;;;;;3.97;3.17;;;;;;;7.11;83.22;99107.53;5028866;28;20218;-80
2023/03/13 05:53:36;;;;;;;3.23;2.70;;;;;;;7.23;82.51;99087.19;5006666;28;20234;-79
2023/03/13 05:56:18;;;;;;;9.40;7.20;;;;;;;7.29;82.15;99089.03;5033338;28;20201;-80
2023/03/13 05:59:02;;;;;;;3.10;2.80;;;;;;;7.35;81.64;99095.34;5033799;28;20204;-79
2023/03/13 06:01:55;;;;;;;4.17;3.20;;;;;;;7.42;81.96;99080.13;5033019;28;20213;-83
2023/03/13 06:04:30;;;;;;;5.67;5.13;;;;;;;7.61;80.73;99081.88;5018627;28;20238;-79
2023/03/13 06:06:57;;;;;;;4.67;3.17;;;;;;;7.80;79.98;99072.97;5035504;28;20217;-81
2023/03/13 06:09:24;;;;;;;5.17;3.80;;;;;;;7.94;79.40;99071.00;5016964;28;20194;-80
2023/03/13 06:11:55;;;;;;;4.77;3.27;;;;;;;8.14;78.83;99069.03;5017205;28;20289;-80
2023/03/13 06:14:23;;;;;;;3.17;2.87;;;;;;;8.30;77.79;99063.19;5034264;28;20238;-80
2023/03/13 06:17:27;;;;;;;4.60;3.27;;;;;;;8.33;77.19;99059.25;4992823;28;20585;-82
2023/03/13 06:19:54;;;;;;;4.33;3.10;;;;;;;8.39;77.18;99061.06;4991804;28;20203;-79
2023/03/13 06:22:21;;;;;;;3.63;2.90;;;;;;;8.40;77.19;99062.66;5000850;28;20269;-79
2023/03/13 06:24:50;;;;;;;4.03;3.00;;;;;;;8.50;76.81;99056.84;5033020;28;20194;-80
2023/03/13 06:27:17;;;;;;;3.27;2.97;;;;;;;8.52;76.60;99050.25;5033057;28;20217;-81
2023/03/13 06:29:43;;;;;;;3.37;3.07;;;;;;;8.62;75.97;99047.91;5016541;28;20209;-81
2023/03/13 06:32:10;;;;;;;3.83;3.20;;;;;;;8.72;75.81;99050.06;5032225;28;20191;-82
2023/03/13 06:34:37;;;;;;;3.70;3.40;;;;;;;8.79;75.61;99062.28;5032356;28;20213;-80
2023/03/13 06:37:04;;;;;;;3.30;3.00;;;;;;;8.90;75.39;99047.41;5032926;28;20273;-81
2023/03/13 06:39:31;;;;;;;3.93;3.47;;;;;;;9.19;74.80;99046.63;5015769;28;20259;-80
2023/03/13 06:41:57;;;;;;;3.37;3.07;;;;;;;9.32;74.21;99051.00;5026983;28;20304;-80
2023/03/13 06:44:24;;;;;;;3.30;2.60;;;;;;;9.43;73.74;99052.88;5015369;28;20271;-81
2023/03/13 06:46:51;;;;;;;2.70;2.50;;;;;;;9.45;73.36;99042.81;5030067;28;20200;-81
2023/03/13 06:49:18;;;;;;;3.03;2.70;;;;;;;9.42;73.38;99039.78;5032944;28;20205;-82
2023/03/13 06:51:44;;;;;;;3.60;2.70;;;;;;;9.42;73.57;99039.78;5032449;28;20742;-80
2023/03/13 06:54:11;;;;;;;3.90;2.60;;;;;;;9.41;73.39;99041.63;5032761;28;20748;-84
2023/03/13 06:56:38;;;;;;;2.80;2.53;;;;;;;9.46;73.69;99040.94;5032748;28;20625;-80
2023/03/13 06:59:05;;;;;;;4.00;3.47;;;;;;;9.51;73.83;99038.41;5029360;28;20206;-80
2023/03/13 07:01:31;;;;;;;4.03;2.90;;;;;;;9.53;73.76;99041.66;5011923;28;20234;-82
2023/03/13 07:03:58;;;;;;;2.97;2.53;;;;;;;9.63;74.09;99036.56;4999653;28;20193;-80
2023/03/13 07:06:25;;;;;;;3.37;2.63;;;;;;;9.84;73.50;99027.22;5034062;28;20194;-82
2023/03/13 07:08:52;;;;;;;3.40;2.63;;;;;;;9.98;73.15;99021.44;5015705;28;20206;-79
2023/03/13 07:11:19;;;;;;;2.90;2.60;;;;;;;10.17;73.09;99014.16;5033071;28;20221;-81
2023/03/13 07:13:46;;;;;;;3.70;2.97;;;;;;;10.39;72.70;99009.03;5031904;28;20272;-80
2023/03/13 07:16:13;;;;;;;3.53;3.20;;;;;;;10.62;72.26;99006.34;4998485;28;20237;-79
2023/03/13 07:18:43;;;;;;;4.70;3.40;;;;;;;10.86;71.64;99007.94;5030493;28;20205;-80
2023/03/13 07:21:11;;;;;;;3.80;2.90;;;;;;;11.14;71.23;99015.22;5024809;28;20195;-81
2023/03/13 07:23:38;;;;;;;3.87;2.70;;;;;;;11.37;70.33;98993.69;5014119;28;20253;-82
2023/03/13 07:26:09;;;;;;;3.23;2.90;;;;;;;11.69;70.27;99003.91;5030211;28;20248;-80
2023/03/13 07:28:39;;;;;;;4.83;3.20;;;;;;;12.01;68.93;99010.38;5030680;28;20688;-82
2023/03/13 07:31:16;;;;;;;3.67;2.70;;;;;;;12.36;67.85;99004.78;5028016;28;20724;-81
2023/03/13 07:33:44;;;;;;;2.90;2.60;;;;;;;12.73;67.07;98996.97;5008163;28;20663;-80
2023/03/13 07:36:13;;;;;;;5.07;3.37;;;;;;;13.11;65.93;98990.75;5031511;28;20221;-80
2023/03/13 07:38:41;;;;;;;4.20;2.97;;;;;;;13.50;65.21;98988.75;5031221;28;20190;-80
2023/03/13 07:41:10;;;;;;;3.83;3.00;;;;;;;13.79;65.12;98987.41;5014598;28;20186;-82
2023/03/13 07:43:37;;;;;;;4.37;2.87;;;;;;;14.03;63.76;98977.94;5029641;28;20182;-81
2023/03/13 07:46:05;;;;;;;5.67;2.27;;;;;;;14.40;63.01;98980.66;5027191;28;20194;-81
2023/03/13 07:48:35;;;;;;;3.53;2.70;;;;;;;14.83;62.64;98981.44;5030734;28;20194;-80
2023/03/13 07:51:03;;;;;;;3.80;2.50;;;;;;;15.01;62.11;98980.16;5025297;28;20222;-81
2023/03/13 07:53:30;;;;;;;5.33;2.50;;;;;;;15.04;61.33;98976.91;5030679;28;20222;-80
2023/03/13 07:56:00;;;;;;;3.40;2.33;;;;;;;15.11;61.73;98974.81;5032226;28;20707;-81
2023/03/13 07:58:29;;;;;;;4.27;2.67;;;;;;;15.13;61.35;98967.25;5026749;28;20196;-80
2023/03/13 08:00:56;;;;;;;4.03;2.17;;;;;;;15.18;60.70;98967.25;5030999;28;20217;-80
2023/03/13 08:03:24;;;;;;;2.97;2.30;;;;;;;15.13;60.96;98959.97;5030646;28;20230;-81
2023/03/13 08:06:02;;;;;;;3.73;2.30;;;;;;;15.18;60.93;98957.28;5030754;28;20189;-80
2023/03/13 08:08:29;;;;;;;5.37;2.60;;;;;;;15.31;60.00;98959.47;5012066;28;20204;-80
2023/03/13 08:11:04;;;;;;;4.47;2.40;;;;;;;15.47;60.12;98962.19;5027203;28;20284;-80
2023/03/13 08:13:32;;;;;;;3.63;2.70;;;;;;;15.61;59.86;98957.94;5048105;28;20220;-79
2023/03/13 08:16:10;;;;;;;3.70;2.20;;;;;;;15.67;59.09;98946.06;5034753;28;20695;-80
2023/03/13 08:18:39;;;;;;;3.07;2.00;;;;;;;15.78;58.19;98951.19;5034529;28;20204;-81
2023/03/13 08:21:08;;;;;;;4.53;2.40;;;;;;;15.94;57.87;98935.81;5027589;28;20197;-80
2023/03/13 08:23:35;;;;;;;2.43;2.10;;;;;;;16.12;57.84;98937.94;5032746;28;20221;-80
2023/03/13 08:26:13;;;;;;;3.07;2.30;;;;;;;16.23;56.57;98936.06;5035500;28;20276;-80
2023/03/13 08:28:41;;;;;;;3.67;1.90;;;;;;;16.47;56.23;98925.47;5034305;28;20224;-81
2023/03/13 08:31:16;;;;;;;5.10;2.00;;;;;;;16.61;55.82;98930.03;5034486;28;20217;-80
2023/03/13 08:33:44;;;;;;;2.80;1.90;;;;;;;16.80;55.09;98929.44;5034844;28;20197;-80
2023/03/13 08:36:18;;;;;;;3.10;1.90;;;;;;;17.05;54.52;98915.78;5017879;28;20225;-80
2023/03/13 08:38:46;;;;;;;1.73;1.60;;;;;;;17.35;52.17;98917.50;5034367;28;20202;-80
2023/03/13 08:41:15;;;;;;;1.43;1.33;;;;;;;17.67;49.83;98920.56;5033983;28;20636;-80
2023/03/13 08:43:42;;;;;;;1.87;1.30;;;;;;;17.93;47.66;98905.69;5034801;28;20231;-80
2023/03/13 08:46:08;;;;;;;2.30;1.30;;;;;;;18.14;47.63;98905.53;5033956;28;20195;-79
2023/03/13 08:48:35;;;;;;;5.27;4.77;;;;;;;18.28;46.85;98911.88;5033631;28;20193;-80
2023/03/13 08:51:07;;;;;;;2.73;2.53;;;;;;;18.27;45.96;98907.53;5016284;28;20210;-80
2023/03/13 08:53:35;;;;;;;2.07;1.97;;;;;;;18.16;47.34;98906.84;5033773;28;20190;-79
2023/03/13 08:56:04;;;;;;;1.80;1.50;;;;;;;18.18;46.45;98909.28;5033850;28;20282;-80
2023/03/13 08:58:32;;;;;;;2.70;1.60;;;;;;;18.21;46.23;98903.25;5033660;28;20208;-80
2023/03/13 09:01:09;;;;;;;3.63;1.80;;;;;;;18.12;46.32;98907.69;5013559;28;20652;-80
2023/03/13 09:03:37;;;;;;;1.60;1.50;;;;;;;18.27;46.58;98899.41;5032072;28;20268;-79
2023/03/13 09:06:04;;;;;;;2.43;1.90;;;;;;;18.46;46.69;98900.28;5034175;28;20256;-80
2023/03/13 09:08:31;;;;;;;2.17;1.73;;;;;;;18.55;45.57;98898.59;5018224;28;20228;-79
2023/03/13 09:11:03;;;;;;;1.80;1.70;;;;;;;18.47;45.29;98891.88;5037876;28;20652;-79
2023/03/13 09:13:31;;;;;;;2.27;1.50;;;;;;;18.64;44.61;98894.16;5048635;28;20647;-80
2023/03/13 09:16:00;;;;;;;2.23;1.70;;;;;;;18.66;45.11;98891.97;5027944;28;20308;-80
2023/03/13 09:18:27;;;;;;;3.20;2.90;;;;;;;18.65;44.23;98895.75;5034219;28;20191;-80
2023/03/13 09:20:54;;;;;;;2.50;2.30;;;;;;;18.49;44.02;98895.09;5034569;28;20206;-80
2023/03/13 09:23:21;;;;;;;3.17;2.00;;;;;;;18.31;44.53;98885.00;5033303;28;20234;-80
2023/03/13 09:25:51;;;;;;;2.53;2.00;;;;;;;18.22;44.81;98884.00;5034378;28;20209;-80
2023/03/13 09:28:17;;;;;;;2.43;1.83;;;;;;;18.30;44.81;98887.97;5034547;28;20199;-80
2023/03/13 09:30:44;;;;;;;3.70;2.47;;;;;;;18.31;44.32;98887.72;5016764;28;20203;-80
2023/03/13 09:33:11;;;;;;;2.07;1.80;;;;;;;18.44;45.07;98897.06;5032958;28;20194;-80
2023/03/13 09:35:38;;;;;;;2.07;1.90;;;;;;;18.56;44.35;98891.25;5034064;28;20273;-80
2023/03/13 09:38:05;;;;;;;1.90;1.80;;;;;;;18.80;44.10;98870.34;5036289;28;20233;-80
2023/03/13 09:40:40;;;;;;;1.93;1.77;;;;;;;19.17;43.86;98875.00;5032850;28;20289;-80
2023/03/13 09:43:36;;;;;;;5.03;2.10;;;;;;;19.27;43.23;98886.50;5031386;28;20280;-80
2023/03/13 09:46:12;;;;;;;2.63;2.10;;;;;;;19.49;43.29;98869.66;5031725;28;20232;-80
2023/03/13 09:48:45;;;;;;;2.10;1.90;;;;;;;19.47;42.97;98862.88;5028414;28;20190;-80
2023/03/13 09:51:25;;;;;;;3.73;1.97;;;;;;;19.50;42.72;98854.97;5029900;28;20191;-79
2023/03/13 09:54:24;;;;;;;5.40;2.03;;;;;;;19.50;42.39;98863.13;5031188;28;20218;-80
2023/03/13 09:57:04;;;;;;;4.57;2.37;;;;;;;19.60;42.59;98876.50;5011618;28;20260;-79
2023/03/13 09:59:36;;;;;;;2.60;1.90;;;;;;;19.53;42.33;98884.25;5017258;28;20266;-80
2023/03/13 10:02:04;;;;;;;2.70;2.00;;;;;;;19.64;42.43;98872.09;5028615;28;20233;-80
2023/03/13 10:04:40;;;;;;;2.47;1.77;;;;;;;19.69;41.74;98874.72;5007699;28;20248;-79
2023/03/13 10:07:14;;;;;;;4.97;3.10;;;;;;;19.86;42.19;98873.38;5034788;28;20671;-80
2023/03/13 10:09:42;;;;;;;4.10;2.93;;;;;;;19.89;42.53;98867.34;5014541;28;20195;-79
2023/03/13 10:12:20;;;;;;;7.93;3.33;;;;;;;20.01;42.73;98862.25;5021255;28;20634;-80
2023/03/13 10:15:07;;;;;;;5.97;3.40;;;;;;;19.85;42.40;98839.97;5031903;28;20234;-79
2023/03/13 10:17:36;;;;;;;3.67;3.30;;;;;;;20.06;42.94;98830.31;5032497;28;20191;-80
2023/03/13 10:20:09;;;;;;;3.83;3.43;;;;;;;20.07;42.58;98834.66;5032184;28;20214;-80
2023/03/13 10:22:36;;;;;;;4.67;3.43;;;;;;;19.96;42.35;98827.00;5033506;28;20217;-80
2023/03/13 10:25:06;;;;;;;4.97;3.50;;;;;;;20.04;42.67;98820.84;5033406;28;20274;-80
2023/03/13 10:27:43;;;;;;;5.40;3.43;;;;;;;20.19;42.15;98818.66;5030217;28;20187;-80
2023/03/13 10:30:25;;;;;;;3.43;3.00;;;;;;;20.31;42.03;98810.00;5031748;28;20192;-80
2023/03/13 10:33:00;;;;;;;4.97;3.00;;;;;;;20.42;41.44;98813.34;5023762;28;20194;-80
2023/03/13 10:35:33;;;;;;;4.60;3.10;;;;;;;20.27;40.98;98794.56;5033298;28;20197;-80
2023/03/13 10:38:04;;;;;;;5.23;2.47;;;;;;;20.22;40.27;98800.91;5033458;28;20655;-80
2023/03/13 10:40:31;;;;;;;2.93;2.37;;;;;;;20.25;40.33;98805.75;5027602;28;20205;-79
2023/03/13 10:43:11;;;;;;;2.20;2.00;;;;;;;20.19;40.35;98794.19;5031829;28;20289;-80
2023/03/13 10:45:38;;;;;;;4.10;2.50;;;;;;;20.24;40.99;98798.72;5015369;28;20209;-80
2023/03/13 10:48:19;;;;;;;2.50;2.30;;;;;;;20.46;40.98;98803.47;4999096;28;20277;-79
2023/03/13 10:50:48;;;;;;;2.80;2.10;;;;;;;20.53;40.01;98807.38;5030338;28;20195;-80
2023/03/13 10:53:27;;;;;;;3.90;2.30;;;;;;;20.67;39.42;98805.44;5007288;28;20203;-79
2023/03/13 10:56:02;;;;;;;2.27;2.00;;;;;;;20.82;39.50;98808.94;5029979;28;20231;-80
2023/03/13 10:58:34;;;;;;;3.60;2.37;;;;;;;20.95;38.48;98803.44;5015459;28;20199;-79
2023/03/13 11:01:24;;;;;;;2.07;1.80;;;;;;;20.91;38.53;98793.47;5026144;28;20733;-80
2023/03/13 11:03:53;;;;;;;2.67;2.10;;;;;;;21.16;38.51;98800.28;5026940;28;20214;-79
2023/03/13 11:06:49;;;;;;;5.73;4.63;;;;;;;21.36;37.58;98800.63;5031469;28;20207;-80
2023/03/13 11:09:16;;;;;;;5.60;5.20;;;;;;;21.36;37.55;98792.44;5015069;28;20283;-79
2023/03/13 11:11:53;;;;;;;9.17;8.37;;;;;;;21.26;37.68;98775.53;5014538;28;20323;-80
2023/03/13 11:14:20;;;;;;;4.83;3.73;;;;;;;21.14;37.28;98786.97;5032039;28;20236;-80
2023/03/13 11:16:53;;;;;;;3.50;2.60;;;;;;;21.24;37.01;98785.94;5029871;28;20748;-80
2023/03/13 11:19:28;;;;;;;9.87;9.07;;;;;;;21.27;37.33;98774.44;5014842;28;20211;-80
2023/03/13 11:21:55;;;;;;;4.67;4.27;;;;;;;21.23;37.62;98776.16;5012332;28;20196;-80
2023/03/13 11:24:38;;;;;;;7.20;6.60;;;;;;;21.03;38.65;98778.22;5029532;28;20221;-80
2023/03/13 11:27:05;;;;;;;4.37;3.13;;;;;;;21.19;38.20;98772.44;5027865;28;20204;-80
2023/03/13 11:29:55;;;;;;;3.00;2.50;;;;;;;21.35;37.94;98773.69;5029585;28;20196;-81
2023/03/13 11:32:26;;;;;;;2.10;1.80;;;;;;;21.42;37.60;98771.31;5011567;28;20238;-80
2023/03/13 11:34:58;;;;;;;3.37;1.80;;;;;;;21.49;36.99;98777.94;5025496;28;20200;-79
2023/03/13 11:37:27;;;;;;;4.13;2.13;;;;;;;21.62;37.45;98778.97;5011537;28;20204;-80
2023/03/13 11:40:05;;;;;;;2.20;1.70;;;;;;;21.77;37.17;98786.75;5028322;28;20282;-79
2023/03/13 11:42:51;;;;;;;2.93;1.90;;;;;;;21.84;36.71;98778.91;5023604;28;20235;-80
2023/03/13 11:45:48;;;;;;;2.33;1.80;;;;;;;21.60;37.30;98780.41;5028090;28;20187;-80
2023/03/13 11:48:46;;;;;;;3.37;1.60;;;;;;;21.72;36.56;98769.72;5029321;28;20193;-80
2023/03/13 11:51:32;;;;;;;1.60;1.40;;;;;;;21.41;36.80;98765.09;5030277;28;20197;-79
2023/03/13 11:54:22;;;;;;;1.40;1.30;;;;;;;21.56;36.94;98760.34;5010818;28;20189;-80
2023/03/13 11:57:15;;;;;;;1.60;1.50;;;;;;;21.68;36.10;98753.19;5027297;28;20250;-80
2023/03/13 12:00:33;;;;;;;2.03;1.40;;;;;;;21.86;35.29;98757.63;4985057;28;20200;-80
2023/03/13 12:03:18;;;;;;;1.93;1.50;;;;;;;22.22;35.43;98759.38;4990752;28;20223;-80
2023/03/13 12:05:55;;;;;;;1.40;1.30;;;;;;;22.24;34.89;98762.59;5030477;28;20229;-79
2023/03/13 12:08:31;;;;;;;2.17;1.27;;;;;;;22.31;35.03;98769.19;5032287;28;20256;-80
2023/03/13 12:11:16;;;;;;;1.70;1.50;;;;;;;22.08;34.49;98761.41;5025846;28;20655;-79